KR-0344 weather

Centrum Leaders Mark Apartments Heliport
Haeundae (Busan), Busan Gwang'yeogsi, South Korea

Public forecast

Using degrees Celsius for public forecast. Weather courtesy of forecast.io.

METAR (pilot weather report)

Closest report is Gimhae International Airport, 9.6 nm (17.7 km) W. Retrieved 2019/08/24 09:00 UTC (5 minutes ago):

RKPK 240900Z 23004KT CAVOK 27/18 Q1010

TAF (pilot weather forecast)

Closest forecast is Gimhae International Airport, 9.6 nm (17.7 km) W. Retrieved 2019/08/24 06:00 UTC (3 hours ago):

TAF COR RKPK 240500Z 2406/2512 24008KT 9999 SCT030 BKN200 TN19/2420Z TX28/2504Z BECMG 2411/2412 33006KT BECMG 2504/2505 24008KT